createdAt,value
2019-02-23T14:46:26.213Z,6.40
2019-02-23T14:50:51.216Z,6.29
2019-02-23T14:55:18.395Z,6.22
2019-02-23T14:59:50.887Z,6.00
2019-02-23T15:04:04.707Z,6.05
2019-02-23T15:08:29.275Z,5.94
2019-02-23T15:12:47.820Z,6.00
2019-02-23T15:17:15.574Z,6.12
2019-02-23T15:21:50.951Z,6.09
2019-02-23T15:26:12.660Z,6.26
2019-02-23T15:30:29.862Z,6.24
2019-02-23T15:34:57.595Z,6.32
2019-02-23T15:39:37.903Z,6.09
2019-02-23T15:43:44.471Z,6.00
2019-02-23T15:47:57.147Z,5.96
2019-02-23T15:52:01.688Z,5.69
2019-02-23T15:56:05.024Z,5.44
2019-02-23T16:00:09.146Z,5.32
2019-02-23T16:04:12.514Z,5.23
2019-02-23T16:08:15.864Z,5.14
2019-02-23T16:12:19.274Z,5.06
2019-02-23T16:16:22.713Z,4.84
2019-02-23T16:20:26.059Z,4.72
2019-02-23T16:24:29.402Z,4.56
2019-02-23T16:28:32.703Z,4.38
2019-02-23T16:32:36.115Z,4.22
2019-02-23T16:36:39.524Z,4.17
2019-02-23T16:40:42.999Z,3.98
2019-02-23T16:44:46.494Z,3.67
2019-02-23T16:48:49.850Z,3.62
2019-02-23T16:52:53.259Z,3.61
2019-02-23T16:56:56.669Z,3.49
2019-02-23T17:01:00.098Z,3.08
2019-02-23T17:05:03.487Z,2.87
2019-02-23T17:09:06.894Z,3.14
2019-02-23T17:13:10.304Z,2.96
2019-02-23T17:17:13.896Z,2.55
2019-02-23T17:21:17.230Z,2.38
2019-02-23T17:25:20.632Z,2.23
2019-02-23T17:29:24.042Z,2.15
2019-02-23T17:33:28.069Z,2.08
2019-02-23T17:37:31.538Z,2.08
2019-02-23T17:41:34.883Z,2.00
2019-02-23T17:45:38.197Z,1.88
2019-02-23T17:49:41.605Z,1.89
2019-02-23T17:53:45.214Z,2.33
2019-02-23T17:57:48.598Z,2.31
2019-02-23T18:01:52.030Z,2.34
2019-02-23T18:05:55.408Z,2.30
2019-02-23T18:09:58.949Z,2.33
2019-02-23T18:14:02.362Z,2.36
2019-02-23T18:18:05.767Z,2.25
2019-02-23T18:22:09.076Z,2.51
2019-02-23T18:26:18.979Z,2.50
2019-02-23T18:30:17.636Z,2.49
2019-02-23T18:34:21.088Z,2.46
2019-02-23T18:38:24.447Z,2.58
2019-02-23T18:42:27.860Z,2.47
2019-02-23T18:46:31.266Z,2.23
2019-02-23T18:50:34.675Z,1.95
2019-02-23T18:54:38.086Z,1.81
2019-02-23T18:58:41.495Z,1.74
2019-02-23T19:02:44.785Z,1.63
2019-02-23T19:06:49.120Z,1.62
2019-02-23T19:10:52.416Z,1.58
2019-02-23T19:14:55.745Z,1.57
2019-02-23T19:18:59.153Z,1.53
2019-02-23T19:23:02.752Z,1.45
2019-02-23T19:27:06.486Z,1.32
2019-02-23T19:31:09.890Z,1.22
2019-02-23T19:35:13.302Z,1.08
2019-02-23T19:39:16.624Z,1.13
2019-02-23T19:43:20.086Z,1.09
2019-02-23T19:47:23.805Z,1.02
2019-02-23T19:51:27.242Z,0.95
2019-02-23T19:55:30.658Z,0.88
2019-02-23T19:59:33.987Z,0.76
2019-02-23T20:03:38.568Z,0.68
2019-02-23T20:07:41.902Z,0.70
2019-02-23T20:11:45.317Z,0.71
2019-02-23T20:15:48.824Z,0.58
2019-02-23T20:19:52.334Z,0.24
2019-02-23T20:23:55.742Z,0.12
2019-02-23T20:27:59.259Z,0.13
2019-02-23T20:32:02.742Z,0.02
2019-02-23T20:36:06.174Z,0.05
2019-02-23T20:40:09.757Z,0.11
2019-02-23T20:44:13.236Z,-0.08
2019-02-23T20:48:16.814Z,-0.25
2019-02-23T20:52:20.629Z,-0.34
2019-02-23T20:56:23.948Z,-0.22
2019-02-23T21:00:27.450Z,-0.10
2019-02-23T21:04:31.022Z,0.00
2019-02-23T21:08:34.386Z,-0.02
2019-02-23T21:12:37.674Z,-0.01
2019-02-23T21:16:40.970Z,0.03
2019-02-23T21:20:44.378Z,-0.53
2019-02-23T21:24:47.700Z,-0.69
2019-02-23T21:28:51.209Z,-0.69
2019-02-23T21:32:54.614Z,-0.66
2019-02-23T21:36:58.021Z,-0.59
2019-02-23T21:41:01.453Z,-0.63
2019-02-23T21:45:07.887Z,-0.81
2019-02-23T21:49:11.217Z,-0.78
2019-02-23T21:53:14.604Z,-0.64
2019-02-23T21:57:22.213Z,-0.59
2019-02-23T22:01:23.099Z,-0.49
2019-02-23T22:05:26.492Z,-0.44
2019-02-23T22:09:29.923Z,-0.45
2019-02-23T22:13:33.313Z,-0.58
2019-02-23T22:17:36.725Z,-0.76
2019-02-23T22:21:40.142Z,-0.74
2019-02-23T22:25:43.558Z,-0.41
2019-02-23T22:29:46.896Z,-0.26
2019-02-23T22:33:50.255Z,-0.12
2019-02-23T22:37:53.681Z,-0.24
2019-02-23T22:41:58.091Z,-0.33
2019-02-23T22:46:01.501Z,-0.30
2019-02-23T22:50:07.157Z,-0.04
2019-02-23T22:54:10.494Z,0.13
2019-02-23T22:58:13.979Z,0.12
2019-02-23T23:02:17.385Z,0.27
2019-02-23T23:06:20.797Z,0.34
2019-02-23T23:10:24.206Z,0.19
2019-02-23T23:14:27.615Z,0.35
2019-02-23T23:18:31.024Z,0.41
2019-02-23T23:22:34.430Z,0.31
2019-02-23T23:26:37.760Z,0.28
2019-02-23T23:30:41.145Z,0.30
2019-02-23T23:34:44.452Z,0.21
2019-02-23T23:38:47.756Z,0.20
2019-02-23T23:42:57.959Z,-0.13
2019-02-23T23:46:56.320Z,-0.23
2019-02-23T23:51:00.220Z,-0.16
2019-02-23T23:55:03.523Z,-0.20
2019-02-23T23:59:08.489Z,-0.21
